sensor_id;sensor_type;location;lat;lon;timestamp;P1;durP1;ratioP1;P2;durP2;ratioP2
49978;SDS011;35869;50.990;6.962;2023-05-07T00:03:23;7.90;;;5.32;;
49978;SDS011;35869;50.990;6.962;2023-05-07T00:08:23;8.82;;;5.75;;
49978;SDS011;35869;50.990;6.962;2023-05-07T00:18:24;6.40;;;5.80;;
49978;SDS011;35869;50.990;6.962;2023-05-07T00:23:24;7.75;;;5.95;;
49978;SDS011;35869;50.990;6.962;2023-05-07T00:28:24;7.38;;;6.13;;
49978;SDS011;35869;50.990;6.962;2023-05-07T00:33:24;7.70;;;6.50;;
49978;SDS011;35869;50.990;6.962;2023-05-07T00:38:25;8.40;;;6.05;;
49978;SDS011;35869;50.990;6.962;2023-05-07T00:43:25;6.13;;;5.20;;
49978;SDS011;35869;50.990;6.962;2023-05-07T00:48:25;6.20;;;5.20;;
49978;SDS011;35869;50.990;6.962;2023-05-07T00:58:26;5.03;;;4.50;;
49978;SDS011;35869;50.990;6.962;2023-05-07T01:08:26;4.70;;;4.28;;
49978;SDS011;35869;50.990;6.962;2023-05-07T01:13:28;4.65;;;4.18;;
49978;SDS011;35869;50.990;6.962;2023-05-07T01:18:29;7.82;;;4.40;;
49978;SDS011;35869;50.990;6.962;2023-05-07T01:23:29;5.15;;;4.63;;
49978;SDS011;35869;50.990;6.962;2023-05-07T01:33:32;4.53;;;4.13;;
49978;SDS011;35869;50.990;6.962;2023-05-07T01:38:35;4.18;;;3.78;;
49978;SDS011;35869;50.990;6.962;2023-05-07T01:43:37;4.20;;;3.53;;
49978;SDS011;35869;50.990;6.962;2023-05-07T01:48:37;4.50;;;3.78;;
49978;SDS011;35869;50.990;6.962;2023-05-07T01:58:39;3.80;;;3.50;;
49978;SDS011;35869;50.990;6.962;2023-05-07T02:03:39;3.53;;;3.22;;
49978;SDS011;35869;50.990;6.962;2023-05-07T02:13:41;4.57;;;3.50;;
49978;SDS011;35869;50.990;6.962;2023-05-07T02:18:41;5.63;;;3.20;;
49978;SDS011;35869;50.990;6.962;2023-05-07T02:28:41;5.85;;;3.75;;
49978;SDS011;35869;50.990;6.962;2023-05-07T02:33:42;3.95;;;3.42;;
49978;SDS011;35869;50.990;6.962;2023-05-07T02:38:42;4.85;;;3.70;;
49978;SDS011;35869;50.990;6.962;2023-05-07T02:48:43;3.75;;;3.20;;
49978;SDS011;35869;50.990;6.962;2023-05-07T02:53:43;4.43;;;4.03;;
49978;SDS011;35869;50.990;6.962;2023-05-07T02:58:43;5.28;;;3.95;;
49978;SDS011;35869;50.990;6.962;2023-05-07T03:03:43;4.45;;;3.60;;
49978;SDS011;35869;50.990;6.962;2023-05-07T03:13:44;4.15;;;3.13;;
49978;SDS011;35869;50.990;6.962;2023-05-07T03:18:44;4.30;;;3.90;;
49978;SDS011;35869;50.990;6.962;2023-05-07T03:23:44;4.22;;;3.83;;
49978;SDS011;35869;50.990;6.962;2023-05-07T03:28:44;4.43;;;4.03;;
49978;SDS011;35869;50.990;6.962;2023-05-07T03:33:51;4.18;;;3.40;;
49978;SDS011;35869;50.990;6.962;2023-05-07T03:38:53;6.07;;;3.42;;
49978;SDS011;35869;50.990;6.962;2023-05-07T03:43:53;6.03;;;3.95;;
49978;SDS011;35869;50.990;6.962;2023-05-07T03:48:53;4.93;;;3.70;;
49978;SDS011;35869;50.990;6.962;2023-05-07T03:53:54;5.95;;;3.28;;
49978;SDS011;35869;50.990;6.962;2023-05-07T03:58:54;6.75;;;3.90;;
49978;SDS011;35869;50.990;6.962;2023-05-07T04:03:55;5.80;;;4.70;;
49978;SDS011;35869;50.990;6.962;2023-05-07T04:13:55;13.80;;;10.88;;
49978;SDS011;35869;50.990;6.962;2023-05-07T04:18:55;8.85;;;8.00;;
49978;SDS011;35869;50.990;6.962;2023-05-07T04:23:56;7.85;;;6.93;;
49978;SDS011;35869;50.990;6.962;2023-05-07T04:28:56;10.32;;;7.90;;
49978;SDS011;35869;50.990;6.962;2023-05-07T04:33:56;8.50;;;7.47;;
49978;SDS011;35869;50.990;6.962;2023-05-07T04:38:56;21.88;;;19.55;;
49978;SDS011;35869;50.990;6.962;2023-05-07T04:43:56;15.57;;;13.00;;
49978;SDS011;35869;50.990;6.962;2023-05-07T04:48:57;8.85;;;7.95;;
49978;SDS011;35869;50.990;6.962;2023-05-07T04:53:57;7.63;;;6.57;;
49978;SDS011;35869;50.990;6.962;2023-05-07T04:58:57;7.10;;;6.38;;
49978;SDS011;35869;50.990;6.962;2023-05-07T05:03:57;4.80;;;4.40;;
49978;SDS011;35869;50.990;6.962;2023-05-07T05:08:57;5.72;;;5.20;;
49978;SDS011;35869;50.990;6.962;2023-05-07T05:13:59;4.93;;;4.32;;
49978;SDS011;35869;50.990;6.962;2023-05-07T05:19:01;4.95;;;4.45;;
49978;SDS011;35869;50.990;6.962;2023-05-07T05:24:01;6.93;;;5.03;;
49978;SDS011;35869;50.990;6.962;2023-05-07T05:29:02;5.13;;;4.17;;
49978;SDS011;35869;50.990;6.962;2023-05-07T05:34:02;5.30;;;4.53;;
49978;SDS011;35869;50.990;6.962;2023-05-07T05:39:02;7.57;;;5.07;;
49978;SDS011;35869;50.990;6.962;2023-05-07T05:44:03;5.47;;;4.93;;
49978;SDS011;35869;50.990;6.962;2023-05-07T05:49:03;4.97;;;4.57;;
49978;SDS011;35869;50.990;6.962;2023-05-07T05:54:03;4.90;;;4.40;;
49978;SDS011;35869;50.990;6.962;2023-05-07T05:59:03;4.82;;;4.53;;
49978;SDS011;35869;50.990;6.962;2023-05-07T06:09:04;4.50;;;4.00;;
49978;SDS011;35869;50.990;6.962;2023-05-07T06:14:04;5.43;;;3.47;;
49978;SDS011;35869;50.990;6.962;2023-05-07T06:19:04;3.55;;;3.25;;
49978;SDS011;35869;50.990;6.962;2023-05-07T06:24:04;3.72;;;3.47;;
49978;SDS011;35869;50.990;6.962;2023-05-07T06:34:05;8.38;;;3.63;;
49978;SDS011;35869;50.990;6.962;2023-05-07T06:39:06;7.05;;;4.15;;
49978;SDS011;35869;50.990;6.962;2023-05-07T06:44:06;4.05;;;3.58;;
49978;SDS011;35869;50.990;6.962;2023-05-07T06:49:06;4.22;;;3.75;;
49978;SDS011;35869;50.990;6.962;2023-05-07T06:59:07;3.60;;;3.30;;
49978;SDS011;35869;50.990;6.962;2023-05-07T07:04:07;4.78;;;3.40;;
49978;SDS011;35869;50.990;6.962;2023-05-07T07:09:07;4.30;;;3.08;;
49978;SDS011;35869;50.990;6.962;2023-05-07T07:14:07;3.55;;;3.20;;
49978;SDS011;35869;50.990;6.962;2023-05-07T07:19:08;6.53;;;3.50;;
49978;SDS011;35869;50.990;6.962;2023-05-07T07:24:08;2.80;;;2.45;;
49978;SDS011;35869;50.990;6.962;2023-05-07T07:29:08;3.43;;;1.50;;
49978;SDS011;35869;50.990;6.962;2023-05-07T07:34:08;4.10;;;2.00;;
49978;SDS011;35869;50.990;6.962;2023-05-07T07:39:09;3.30;;;2.40;;
49978;SDS011;35869;50.990;6.962;2023-05-07T07:44:09;3.87;;;2.33;;
49978;SDS011;35869;50.990;6.962;2023-05-07T07:49:09;2.88;;;2.00;;
49978;SDS011;35869;50.990;6.962;2023-05-07T07:54:09;2.63;;;1.73;;
49978;SDS011;35869;50.990;6.962;2023-05-07T07:59:09;1.70;;;1.50;;
49978;SDS011;35869;50.990;6.962;2023-05-07T08:04:10;2.37;;;2.17;;
49978;SDS011;35869;50.990;6.962;2023-05-07T08:09:10;1.90;;;1.80;;
49978;SDS011;35869;50.990;6.962;2023-05-07T08:14:11;2.87;;;1.90;;
49978;SDS011;35869;50.990;6.962;2023-05-07T08:19:11;3.22;;;1.95;;
49978;SDS011;35869;50.990;6.962;2023-05-07T08:24:11;3.40;;;1.87;;
49978;SDS011;35869;50.990;6.962;2023-05-07T08:29:11;2.17;;;1.47;;
49978;SDS011;35869;50.990;6.962;2023-05-07T08:34:12;2.25;;;1.92;;
49978;SDS011;35869;50.990;6.962;2023-05-07T08:39:12;3.93;;;1.93;;
49978;SDS011;35869;50.990;6.962;2023-05-07T08:44:13;2.70;;;1.97;;
49978;SDS011;35869;50.990;6.962;2023-05-07T08:49:13;2.00;;;1.40;;
49978;SDS011;35869;50.990;6.962;2023-05-07T08:54:15;1.75;;;1.63;;
49978;SDS011;35869;50.990;6.962;2023-05-07T08:59:16;1.70;;;1.52;;
49978;SDS011;35869;50.990;6.962;2023-05-07T09:04:16;2.37;;;1.63;;
49978;SDS011;35869;50.990;6.962;2023-05-07T09:09:17;2.00;;;1.70;;
49978;SDS011;35869;50.990;6.962;2023-05-07T09:14:17;3.15;;;1.77;;
49978;SDS011;35869;50.990;6.962;2023-05-07T09:19:22;3.05;;;1.80;;
49978;SDS011;35869;50.990;6.962;2023-05-07T09:24:24;2.95;;;1.63;;
49978;SDS011;35869;50.990;6.962;2023-05-07T09:29:24;3.55;;;1.70;;
49978;SDS011;35869;50.990;6.962;2023-05-07T09:34:24;2.58;;;1.55;;
49978;SDS011;35869;50.990;6.962;2023-05-07T09:39:25;2.17;;;1.48;;
49978;SDS011;35869;50.990;6.962;2023-05-07T09:44:25;2.00;;;1.60;;
49978;SDS011;35869;50.990;6.962;2023-05-07T09:49:26;2.47;;;1.58;;
49978;SDS011;35869;50.990;6.962;2023-05-07T09:54:29;2.83;;;1.75;;
49978;SDS011;35869;50.990;6.962;2023-05-07T09:59:31;3.58;;;2.08;;
49978;SDS011;35869;50.990;6.962;2023-05-07T10:04:32;2.40;;;1.42;;
49978;SDS011;35869;50.990;6.962;2023-05-07T10:09:33;1.83;;;1.40;;
49978;SDS011;35869;50.990;6.962;2023-05-07T10:14:35;2.53;;;1.20;;
49978;SDS011;35869;50.990;6.962;2023-05-07T10:19:36;2.08;;;1.38;;
49978;SDS011;35869;50.990;6.962;2023-05-07T10:24:38;1.77;;;1.20;;
49978;SDS011;35869;50.990;6.962;2023-05-07T10:29:39;1.95;;;1.67;;
49978;SDS011;35869;50.990;6.962;2023-05-07T10:34:45;1.33;;;1.23;;
49978;SDS011;35869;50.990;6.962;2023-05-07T10:39:48;1.27;;;1.17;;
49978;SDS011;35869;50.990;6.962;2023-05-07T10:44:49;2.05;;;1.00;;
49978;SDS011;35869;50.990;6.962;2023-05-07T11:05:19;5.20;;;1.23;;
49978;SDS011;35869;50.990;6.962;2023-05-07T11:10:20;1.90;;;0.93;;
49978;SDS011;35869;50.990;6.962;2023-05-07T11:15:37;2.90;;;1.23;;
49978;SDS011;35869;50.990;6.962;2023-05-07T11:20:49;3.10;;;1.17;;
49978;SDS011;35869;50.990;6.962;2023-05-07T11:25:51;1.60;;;1.10;;
49978;SDS011;35869;50.990;6.962;2023-05-07T11:30:59;2.40;;;1.00;;
49978;SDS011;35869;50.990;6.962;2023-05-07T11:36:00;2.20;;;1.33;;
49978;SDS011;35869;50.990;6.962;2023-05-07T11:41:02;2.00;;;1.67;;
49978;SDS011;35869;50.990;6.962;2023-05-07T11:46:06;1.17;;;1.08;;
49978;SDS011;35869;50.990;6.962;2023-05-07T11:51:07;3.60;;;1.10;;
49978;SDS011;35869;50.990;6.962;2023-05-07T12:01:09;1.92;;;1.20;;
49978;SDS011;35869;50.990;6.962;2023-05-07T12:06:10;2.00;;;1.20;;
49978;SDS011;35869;50.990;6.962;2023-05-07T12:11:15;2.38;;;1.00;;
49978;SDS011;35869;50.990;6.962;2023-05-07T12:16:16;1.50;;;1.40;;
49978;SDS011;35869;50.990;6.962;2023-05-07T12:21:17;1.95;;;1.33;;
49978;SDS011;35869;50.990;6.962;2023-05-07T12:26:19;4.90;;;1.20;;
49978;SDS011;35869;50.990;6.962;2023-05-07T12:31:19;2.60;;;1.08;;
49978;SDS011;35869;50.990;6.962;2023-05-07T12:41:57;2.78;;;1.30;;
49978;SDS011;35869;50.990;6.962;2023-05-07T12:47:01;2.50;;;1.30;;
49978;SDS011;35869;50.990;6.962;2023-05-07T12:52:01;4.80;;;1.20;;
49978;SDS011;35869;50.990;6.962;2023-05-07T12:57:05;1.75;;;1.27;;
49978;SDS011;35869;50.990;6.962;2023-05-07T13:02:07;2.13;;;1.10;;
49978;SDS011;35869;50.990;6.962;2023-05-07T13:07:08;2.67;;;1.65;;
49978;SDS011;35869;50.990;6.962;2023-05-07T13:12:08;1.55;;;1.45;;
49978;SDS011;35869;50.990;6.962;2023-05-07T13:17:08;5.13;;;1.50;;
49978;SDS011;35869;50.990;6.962;2023-05-07T13:22:09;1.35;;;1.25;;
49978;SDS011;35869;50.990;6.962;2023-05-07T13:27:10;3.42;;;1.73;;
49978;SDS011;35869;50.990;6.962;2023-05-07T13:32:10;1.67;;;1.27;;
49978;SDS011;35869;50.990;6.962;2023-05-07T13:37:10;3.75;;;1.90;;
49978;SDS011;35869;50.990;6.962;2023-05-07T13:42:11;1.25;;;1.13;;
49978;SDS011;35869;50.990;6.962;2023-05-07T13:47:11;1.30;;;1.20;;
49978;SDS011;35869;50.990;6.962;2023-05-07T13:52:11;1.20;;;0.60;;
49978;SDS011;35869;50.990;6.962;2023-05-07T13:57:12;2.37;;;1.27;;
49978;SDS011;35869;50.990;6.962;2023-05-07T14:02:12;2.40;;;1.30;;
49978;SDS011;35869;50.990;6.962;2023-05-07T14:07:12;1.48;;;1.38;;
49978;SDS011;35869;50.990;6.962;2023-05-07T14:12:12;1.92;;;1.20;;
49978;SDS011;35869;50.990;6.962;2023-05-07T14:17:12;1.35;;;1.25;;
49978;SDS011;35869;50.990;6.962;2023-05-07T14:22:13;1.50;;;1.13;;
49978;SDS011;35869;50.990;6.962;2023-05-07T14:27:14;4.35;;;1.15;;
49978;SDS011;35869;50.990;6.962;2023-05-07T14:32:14;2.38;;;1.30;;
49978;SDS011;35869;50.990;6.962;2023-05-07T14:37:14;1.40;;;1.20;;
49978;SDS011;35869;50.990;6.962;2023-05-07T14:42:15;2.67;;;1.65;;
49978;SDS011;35869;50.990;6.962;2023-05-07T14:47:15;2.90;;;1.77;;
49978;SDS011;35869;50.990;6.962;2023-05-07T14:52:15;2.90;;;1.50;;
49978;SDS011;35869;50.990;6.962;2023-05-07T14:57:15;4.57;;;1.92;;
49978;SDS011;35869;50.990;6.962;2023-05-07T15:02:15;1.60;;;1.50;;
49978;SDS011;35869;50.990;6.962;2023-05-07T15:07:16;3.33;;;1.30;;
49978;SDS011;35869;50.990;6.962;2023-05-07T15:12:16;2.13;;;1.35;;
49978;SDS011;35869;50.990;6.962;2023-05-07T15:17:16;1.58;;;1.45;;
49978;SDS011;35869;50.990;6.962;2023-05-07T15:22:16;3.90;;;2.20;;
49978;SDS011;35869;50.990;6.962;2023-05-07T15:27:17;4.70;;;2.53;;
49978;SDS011;35869;50.990;6.962;2023-05-07T15:32:17;6.50;;;3.07;;
49978;SDS011;35869;50.990;6.962;2023-05-07T15:37:17;3.92;;;2.75;;
49978;SDS011;35869;50.990;6.962;2023-05-07T15:42:17;4.03;;;2.42;;
49978;SDS011;35869;50.990;6.962;2023-05-07T15:47:18;3.25;;;2.30;;
49978;SDS011;35869;50.990;6.962;2023-05-07T15:52:18;2.60;;;2.38;;
49978;SDS011;35869;50.990;6.962;2023-05-07T15:57:18;3.30;;;1.85;;
49978;SDS011;35869;50.990;6.962;2023-05-07T16:02:18;2.70;;;1.80;;
49978;SDS011;35869;50.990;6.962;2023-05-07T16:07:18;2.40;;;1.67;;
49978;SDS011;35869;50.990;6.962;2023-05-07T16:12:19;3.15;;;2.10;;
49978;SDS011;35869;50.990;6.962;2023-05-07T16:17:19;2.60;;;1.83;;
49978;SDS011;35869;50.990;6.962;2023-05-07T16:22:19;2.38;;;2.08;;
49978;SDS011;35869;50.990;6.962;2023-05-07T16:27:19;2.17;;;1.98;;
49978;SDS011;35869;50.990;6.962;2023-05-07T16:32:20;2.53;;;2.33;;
49978;SDS011;35869;50.990;6.962;2023-05-07T16:37:20;3.67;;;2.72;;
49978;SDS011;35869;50.990;6.962;2023-05-07T16:42:20;2.67;;;2.20;;
49978;SDS011;35869;50.990;6.962;2023-05-07T16:47:20;2.70;;;2.23;;
49978;SDS011;35869;50.990;6.962;2023-05-07T16:52:21;2.38;;;2.17;;
49978;SDS011;35869;50.990;6.962;2023-05-07T16:57:21;3.43;;;2.10;;
49978;SDS011;35869;50.990;6.962;2023-05-07T17:02:21;2.15;;;2.00;;
49978;SDS011;35869;50.990;6.962;2023-05-07T17:07:24;3.20;;;2.47;;
49978;SDS011;35869;50.990;6.962;2023-05-07T17:12:25;3.38;;;3.08;;
49978;SDS011;35869;50.990;6.962;2023-05-07T17:17:25;3.58;;;2.70;;
49978;SDS011;35869;50.990;6.962;2023-05-07T17:22:25;2.65;;;2.45;;
49978;SDS011;35869;50.990;6.962;2023-05-07T17:27:26;4.72;;;2.42;;
49978;SDS011;35869;50.990;6.962;2023-05-07T17:32:26;2.78;;;2.58;;
49978;SDS011;35869;50.990;6.962;2023-05-07T17:37:26;3.83;;;2.97;;
49978;SDS011;35869;50.990;6.962;2023-05-07T17:42:26;2.90;;;2.50;;
49978;SDS011;35869;50.990;6.962;2023-05-07T17:47:27;5.18;;;2.55;;
49978;SDS011;35869;50.990;6.962;2023-05-07T17:52:27;3.38;;;3.08;;
49978;SDS011;35869;50.990;6.962;2023-05-07T17:57:27;3.63;;;3.10;;
49978;SDS011;35869;50.990;6.962;2023-05-07T18:02:27;3.55;;;3.25;;
49978;SDS011;35869;50.990;6.962;2023-05-07T18:07:27;2.97;;;2.60;;
49978;SDS011;35869;50.990;6.962;2023-05-07T18:12:28;3.10;;;2.80;;
49978;SDS011;35869;50.990;6.962;2023-05-07T18:17:28;4.72;;;2.55;;
49978;SDS011;35869;50.990;6.962;2023-05-07T18:22:28;3.85;;;2.70;;
49978;SDS011;35869;50.990;6.962;2023-05-07T18:27:29;2.83;;;2.60;;
49978;SDS011;35869;50.990;6.962;2023-05-07T18:32:29;4.03;;;2.88;;
49978;SDS011;35869;50.990;6.962;2023-05-07T18:37:29;3.92;;;2.65;;
49978;SDS011;35869;50.990;6.962;2023-05-07T18:42:30;3.38;;;2.90;;
49978;SDS011;35869;50.990;6.962;2023-05-07T18:47:30;4.43;;;3.00;;
49978;SDS011;35869;50.990;6.962;2023-05-07T18:52:30;4.07;;;2.50;;
49978;SDS011;35869;50.990;6.962;2023-05-07T18:57:30;3.08;;;2.22;;
49978;SDS011;35869;50.990;6.962;2023-05-07T19:02:31;4.28;;;2.92;;
49978;SDS011;35869;50.990;6.962;2023-05-07T19:07:31;3.10;;;2.70;;
49978;SDS011;35869;50.990;6.962;2023-05-07T19:12:32;2.90;;;2.58;;
49978;SDS011;35869;50.990;6.962;2023-05-07T19:17:35;3.63;;;2.72;;
49978;SDS011;35869;50.990;6.962;2023-05-07T19:22:40;4.95;;;3.03;;
49978;SDS011;35869;50.990;6.962;2023-05-07T19:27:46;3.83;;;2.88;;
49978;SDS011;35869;50.990;6.962;2023-05-07T19:32:50;4.55;;;2.95;;
49978;SDS011;35869;50.990;6.962;2023-05-07T19:37:50;4.68;;;3.20;;
49978;SDS011;35869;50.990;6.962;2023-05-07T19:42:50;5.03;;;3.78;;
49978;SDS011;35869;50.990;6.962;2023-05-07T19:47:50;6.53;;;3.90;;
49978;SDS011;35869;50.990;6.962;2023-05-07T19:52:51;6.25;;;4.18;;
49978;SDS011;35869;50.990;6.962;2023-05-07T19:57:51;4.85;;;3.72;;
49978;SDS011;35869;50.990;6.962;2023-05-07T20:02:51;5.28;;;4.20;;
49978;SDS011;35869;50.990;6.962;2023-05-07T20:07:51;5.90;;;4.30;;
49978;SDS011;35869;50.990;6.962;2023-05-07T20:12:55;6.68;;;4.30;;
49978;SDS011;35869;50.990;6.962;2023-05-07T20:17:55;6.35;;;5.15;;
49978;SDS011;35869;50.990;6.962;2023-05-07T20:22:55;5.57;;;5.03;;
49978;SDS011;35869;50.990;6.962;2023-05-07T20:27:56;9.55;;;6.00;;
49978;SDS011;35869;50.990;6.962;2023-05-07T20:32:56;7.57;;;6.00;;
49978;SDS011;35869;50.990;6.962;2023-05-07T20:37:56;8.77;;;6.30;;
49978;SDS011;35869;50.990;6.962;2023-05-07T20:42:56;8.03;;;5.63;;
49978;SDS011;35869;50.990;6.962;2023-05-07T20:47:57;9.02;;;6.28;;
49978;SDS011;35869;50.990;6.962;2023-05-07T20:52:57;7.00;;;6.30;;
49978;SDS011;35869;50.990;6.962;2023-05-07T20:57:57;6.93;;;6.30;;
49978;SDS011;35869;50.990;6.962;2023-05-07T21:03:05;6.38;;;5.68;;
49978;SDS011;35869;50.990;6.962;2023-05-07T21:08:05;5.43;;;4.93;;
49978;SDS011;35869;50.990;6.962;2023-05-07T21:13:21;7.95;;;4.05;;
49978;SDS011;35869;50.990;6.962;2023-05-07T21:18:30;6.20;;;4.50;;
49978;SDS011;35869;50.990;6.962;2023-05-07T21:23:30;3.60;;;3.22;;
49978;SDS011;35869;50.990;6.962;2023-05-07T21:28:30;3.40;;;3.10;;
49978;SDS011;35869;50.990;6.962;2023-05-07T21:33:31;3.33;;;3.03;;
49978;SDS011;35869;50.990;6.962;2023-05-07T21:38:31;3.13;;;2.65;;
49978;SDS011;35869;50.990;6.962;2023-05-07T21:43:31;4.97;;;3.30;;
49978;SDS011;35869;50.990;6.962;2023-05-07T21:48:32;3.78;;;3.22;;
49978;SDS011;35869;50.990;6.962;2023-05-07T21:53:32;4.38;;;3.80;;
49978;SDS011;35869;50.990;6.962;2023-05-07T21:58:33;6.15;;;4.70;;
49978;SDS011;35869;50.990;6.962;2023-05-07T22:03:34;5.93;;;5.13;;
49978;SDS011;35869;50.990;6.962;2023-05-07T22:08:34;7.37;;;6.67;;
49978;SDS011;35869;50.990;6.962;2023-05-07T22:13:34;8.10;;;6.70;;
49978;SDS011;35869;50.990;6.962;2023-05-07T22:18:34;8.73;;;7.33;;
49978;SDS011;35869;50.990;6.962;2023-05-07T22:23:35;8.20;;;6.30;;
49978;SDS011;35869;50.990;6.962;2023-05-07T22:28:35;9.25;;;6.35;;
49978;SDS011;35869;50.990;6.962;2023-05-07T22:33:35;5.65;;;5.15;;
49978;SDS011;35869;50.990;6.962;2023-05-07T22:38:36;5.15;;;4.70;;
49978;SDS011;35869;50.990;6.962;2023-05-07T22:43:36;5.17;;;4.67;;
49978;SDS011;35869;50.990;6.962;2023-05-07T22:48:36;5.43;;;4.93;;
49978;SDS011;35869;50.990;6.962;2023-05-07T22:53:36;5.43;;;4.93;;
49978;SDS011;35869;50.990;6.962;2023-05-07T22:58:37;5.17;;;4.67;;
49978;SDS011;35869;50.990;6.962;2023-05-07T23:03:37;5.80;;;5.20;;
49978;SDS011;35869;50.990;6.962;2023-05-07T23:08:37;5.83;;;4.77;;
49978;SDS011;35869;50.990;6.962;2023-05-07T23:13:37;5.83;;;5.07;;
49978;SDS011;35869;50.990;6.962;2023-05-07T23:18:37;6.17;;;5.53;;
49978;SDS011;35869;50.990;6.962;2023-05-07T23:23:38;7.63;;;6.10;;
49978;SDS011;35869;50.990;6.962;2023-05-07T23:28:38;9.35;;;6.75;;
49978;SDS011;35869;50.990;6.962;2023-05-07T23:33:38;7.53;;;6.43;;
49978;SDS011;35869;50.990;6.962;2023-05-07T23:38:39;8.90;;;6.80;;
49978;SDS011;35869;50.990;6.962;2023-05-07T23:43:39;7.87;;;6.50;;
49978;SDS011;35869;50.990;6.962;2023-05-07T23:48:39;7.80;;;7.00;;
49978;SDS011;35869;50.990;6.962;2023-05-07T23:53:39;8.90;;;7.23;;
49978;SDS011;35869;50.990;6.962;2023-05-07T23:58:39;8.73;;;7.83;;
